sensor_id;sensor_type;location;lat;lon;timestamp;pressure;altitude;pressure_sealevel;temperature;humidity
33185;BME280;19550;42.872;25.494;2023-03-22T00:00:53;96034.00;;;10.40;100.00
33185;BME280;19550;42.872;25.494;2023-03-22T00:03:20;96031.91;;;10.37;100.00
33185;BME280;19550;42.872;25.494;2023-03-22T00:05:47;96026.00;;;10.38;100.00
33185;BME280;19550;42.872;25.494;2023-03-22T00:08:16;96039.53;;;10.57;100.00
33185;BME280;19550;42.872;25.494;2023-03-22T00:10:43;96029.25;;;10.49;100.00
33185;BME280;19550;42.872;25.494;2023-03-22T00:13:10;96038.53;;;10.53;100.00
33185;BME280;19550;42.872;25.494;2023-03-22T00:15:37;96028.91;;;10.59;100.00
33185;BME280;19550;42.872;25.494;2023-03-22T00:18:03;96031.84;;;10.62;100.00
33185;BME280;19550;42.872;25.494;2023-03-22T00:20:31;96022.66;;;10.70;100.00
33185;BME280;19550;42.872;25.494;2023-03-22T00:23:01;96017.16;;;10.62;100.00
33185;BME280;19550;42.872;25.494;2023-03-22T00:25:29;96010.63;;;10.66;100.00
33185;BME280;19550;42.872;25.494;2023-03-22T00:27:56;96015.03;;;10.67;100.00
33185;BME280;19550;42.872;25.494;2023-03-22T00:30:23;96022.66;;;10.70;100.00
33185;BME280;19550;42.872;25.494;2023-03-22T00:32:50;96018.13;;;10.66;100.00
33185;BME280;19550;42.872;25.494;2023-03-22T00:35:17;96026.44;;;10.57;100.00
33185;BME280;19550;42.872;25.494;2023-03-22T00:37:43;96024.50;;;10.58;100.00
33185;BME280;19550;42.872;25.494;2023-03-22T00:40:12;96013.22;;;10.71;100.00
33185;BME280;19550;42.872;25.494;2023-03-22T00:42:41;96013.38;;;10.66;100.00
33185;BME280;19550;42.872;25.494;2023-03-22T00:45:10;96018.31;;;10.61;100.00
33185;BME280;19550;42.872;25.494;2023-03-22T00:47:37;96009.63;;;10.71;100.00
33185;BME280;19550;42.872;25.494;2023-03-22T00:50:06;96013.22;;;10.71;100.00
33185;BME280;19550;42.872;25.494;2023-03-22T00:52:33;96016.78;;;10.72;100.00
33185;BME280;19550;42.872;25.494;2023-03-22T00:54:59;96015.31;;;10.74;100.00
33185;BME280;19550;42.872;25.494;2023-03-22T00:57:26;96010.09;;;10.73;100.00
33185;BME280;19550;42.872;25.494;2023-03-22T00:59:54;96011.06;;;10.77;100.00
33185;BME280;19550;42.872;25.494;2023-03-22T01:02:23;96015.31;;;10.74;100.00
33185;BME280;19550;42.872;25.494;2023-03-22T01:04:54;96007.50;;;10.77;100.00
33185;BME280;19550;42.872;25.494;2023-03-22T01:07:21;96005.81;;;10.84;100.00
33185;BME280;19550;42.872;25.494;2023-03-22T01:09:49;96002.22;;;10.84;100.00
33185;BME280;19550;42.872;25.494;2023-03-22T01:12:16;96002.06;;;10.89;100.00
33185;BME280;19550;42.872;25.494;2023-03-22T01:14:43;96011.38;;;10.84;100.00
33185;BME280;19550;42.872;25.494;2023-03-22T01:17:11;96004.38;;;10.78;100.00
33185;BME280;19550;42.872;25.494;2023-03-22T01:19:38;96010.75;;;10.79;100.00
33185;BME280;19550;42.872;25.494;2023-03-22T01:22:06;95998.16;;;10.90;100.00
33185;BME280;19550;42.872;25.494;2023-03-22T01:24:33;96001.38;;;10.92;100.00
33185;BME280;19550;42.872;25.494;2023-03-22T01:27:00;96000.56;;;10.91;100.00
33185;BME280;19550;42.872;25.494;2023-03-22T01:29:26;95987.06;;;10.90;100.00
33185;BME280;19550;42.872;25.494;2023-03-22T01:31:53;96003.13;;;11.05;100.00
33185;BME280;19550;42.872;25.494;2023-03-22T01:34:21;95994.88;;;10.96;100.00
33185;BME280;19550;42.872;25.494;2023-03-22T01:36:48;95996.97;;;10.99;100.00
33185;BME280;19550;42.872;25.494;2023-03-22T01:39:15;95996.09;;;11.07;100.00
33185;BME280;19550;42.872;25.494;2023-03-22T01:41:42;95995.50;;;11.02;100.00
33185;BME280;19550;42.872;25.494;2023-03-22T01:44:11;95997.66;;;10.96;100.00
33185;BME280;19550;42.872;25.494;2023-03-22T01:46:40;95991.31;;;10.87;100.00
33185;BME280;19550;42.872;25.494;2023-03-22T01:49:09;95996.34;;;10.85;100.00
33185;BME280;19550;42.872;25.494;2023-03-22T01:51:40;95989.16;;;10.93;100.00
33185;BME280;19550;42.872;25.494;2023-03-22T01:54:11;95980.22;;;10.87;100.00
33185;BME280;19550;42.872;25.494;2023-03-22T01:56:40;95981.84;;;10.88;100.00
33185;BME280;19550;42.872;25.494;2023-03-22T01:59:10;95977.44;;;10.87;100.00
33185;BME280;19550;42.872;25.494;2023-03-22T02:01:38;95979.44;;;10.78;100.00
33185;BME280;19550;42.872;25.494;2023-03-22T02:04:07;95970.47;;;10.72;100.00
33185;BME280;19550;42.872;25.494;2023-03-22T02:06:37;95978.81;;;10.72;100.00
33185;BME280;19550;42.872;25.494;2023-03-22T02:09:06;95980.97;;;10.58;100.00
33185;BME280;19550;42.872;25.494;2023-03-22T02:11:36;95981.78;;;10.59;100.00
33185;BME280;19550;42.872;25.494;2023-03-22T02:14:20;95982.78;;;10.54;100.00
33185;BME280;19550;42.872;25.494;2023-03-22T02:17:01;95979.69;;;10.56;100.00
33185;BME280;19550;42.872;25.494;2023-03-22T02:19:59;95977.06;;;10.51;100.00
33185;BME280;19550;42.872;25.494;2023-03-22T02:22:51;95982.81;;;10.46;100.00
33185;BME280;19550;42.872;25.494;2023-03-22T02:26:01;95977.25;;;10.46;100.00
33185;BME280;19550;42.872;25.494;2023-03-22T02:28:38;95984.28;;;10.43;100.00
33185;BME280;19550;42.872;25.494;2023-03-22T02:31:27;95995.34;;;10.52;100.00
33185;BME280;19550;42.872;25.494;2023-03-22T02:34:23;95992.41;;;10.57;100.00
33185;BME280;19550;42.872;25.494;2023-03-22T02:37:19;96005.97;;;10.32;100.00
33185;BME280;19550;42.872;25.494;2023-03-22T02:39:55;96012.19;;;10.29;100.00
33185;BME280;19550;42.872;25.494;2023-03-22T02:42:39;96005.97;;;10.32;100.00
33185;BME280;19550;42.872;25.494;2023-03-22T02:45:13;96004.50;;;10.35;100.00
33185;BME280;19550;42.872;25.494;2023-03-22T02:47:48;96004.19;;;10.28;100.00
33185;BME280;19550;42.872;25.494;2023-03-22T02:50:21;96009.75;;;10.28;100.00
33185;BME280;19550;42.872;25.494;2023-03-22T02:52:54;95992.75;;;10.38;100.00
33185;BME280;19550;42.872;25.494;2023-03-22T02:55:28;95975.00;;;10.30;100.00
33185;BME280;19550;42.872;25.494;2023-03-22T02:58:01;95984.31;;;10.26;100.00
33185;BME280;19550;42.872;25.494;2023-03-22T03:00:29;95981.41;;;10.22;100.00
33185;BME280;19550;42.872;25.494;2023-03-22T03:02:59;95980.25;;;10.23;100.00
33185;BME280;19550;42.872;25.494;2023-03-22T03:05:37;95982.53;;;10.21;100.00
33185;BME280;19550;42.872;25.494;2023-03-22T03:08:05;95989.38;;;10.15;100.00
33185;BME280;19550;42.872;25.494;2023-03-22T03:10:36;95986.09;;;10.30;100.00
33185;BME280;19550;42.872;25.494;2023-03-22T03:13:03;95981.22;;;10.19;100.00
33185;BME280;19550;42.872;25.494;2023-03-22T03:15:31;95988.53;;;10.32;100.00
33185;BME280;19550;42.872;25.494;2023-03-22T03:18:17;95993.13;;;10.28;100.00
33185;BME280;19550;42.872;25.494;2023-03-22T03:20:53;95998.34;;;10.29;100.00
33185;BME280;19550;42.872;25.494;2023-03-22T03:23:29;95997.53;;;10.20;100.00
33185;BME280;19550;42.872;25.494;2023-03-22T03:26:01;95997.19;;;10.13;100.00
33185;BME280;19550;42.872;25.494;2023-03-22T03:28:36;95997.50;;;10.12;100.00
33185;BME280;19550;42.872;25.494;2023-03-22T03:31:14;95991.00;;;10.16;100.00
33185;BME280;19550;42.872;25.494;2023-03-22T03:33:49;95987.41;;;10.07;100.00
33185;BME280;19550;42.872;25.494;2023-03-22T03:36:19;95995.72;;;10.07;100.00
33185;BME280;19550;42.872;25.494;2023-03-22T03:38:49;96003.22;;;10.07;100.00
33185;BME280;19550;42.872;25.494;2023-03-22T03:41:21;95991.81;;;10.00;100.00
33185;BME280;19550;42.872;25.494;2023-03-22T03:43:50;95999.31;;;9.90;100.00
33185;BME280;19550;42.872;25.494;2023-03-22T03:46:19;96002.09;;;9.82;100.00
33185;BME280;19550;42.872;25.494;2023-03-22T03:48:47;95997.19;;;9.79;100.00
33185;BME280;19550;42.872;25.494;2023-03-22T03:51:15;95993.47;;;9.83;100.00
33185;BME280;19550;42.872;25.494;2023-03-22T03:53:42;95995.22;;;9.79;100.00
33185;BME280;19550;42.872;25.494;2023-03-22T03:56:09;95997.22;;;9.70;100.00
33185;BME280;19550;42.872;25.494;2023-03-22T03:58:38;96002.41;;;9.63;100.00
33185;BME280;19550;42.872;25.494;2023-03-22T04:01:05;96001.72;;;9.57;100.00
33185;BME280;19550;42.872;25.494;2023-03-22T04:03:32;95999.78;;;9.49;100.00
33185;BME280;19550;42.872;25.494;2023-03-22T04:05:59;95999.78;;;9.49;100.00
33185;BME280;19550;42.872;25.494;2023-03-22T04:08:26;96002.38;;;9.46;100.00
33185;BME280;19550;42.872;25.494;2023-03-22T04:10:53;96008.56;;;9.51;100.00
33185;BME280;19550;42.872;25.494;2023-03-22T04:13:20;96008.22;;;9.44;100.00
33185;BME280;19550;42.872;25.494;2023-03-22T04:15:52;96014.59;;;9.53;100.00
33185;BME280;19550;42.872;25.494;2023-03-22T04:18:19;96016.19;;;9.46;100.00
33185;BME280;19550;42.872;25.494;2023-03-22T04:20:46;96022.53;;;9.38;100.00
33185;BME280;19550;42.872;25.494;2023-03-22T04:23:14;96024.34;;;9.42;100.00
33185;BME280;19550;42.872;25.494;2023-03-22T04:25:40;96039.16;;;9.46;100.00
33185;BME280;19550;42.872;25.494;2023-03-22T04:28:07;96032.13;;;9.40;100.00
33185;BME280;19550;42.872;25.494;2023-03-22T04:30:34;96039.63;;;9.40;100.00
33185;BME280;19550;42.872;25.494;2023-03-22T04:33:03;96037.50;;;9.45;100.00
33185;BME280;19550;42.872;25.494;2023-03-22T04:35:32;96034.75;;;9.45;100.00
33185;BME280;19550;42.872;25.494;2023-03-22T04:38:00;96024.50;;;9.46;100.00
33185;BME280;19550;42.872;25.494;2023-03-22T04:40:27;96034.63;;;9.50;100.00
33185;BME280;19550;42.872;25.494;2023-03-22T04:42:59;96040.31;;;9.54;100.00
33185;BME280;19550;42.872;25.494;2023-03-22T04:45:28;96047.31;;;9.60;100.00
33185;BME280;19550;42.872;25.494;2023-03-22T04:47:56;96051.22;;;9.59;100.00
33185;BME280;19550;42.872;25.494;2023-03-22T04:50:25;96045.69;;;9.59;100.00
33185;BME280;19550;42.872;25.494;2023-03-22T04:52:52;96048.44;;;9.59;100.00
33185;BME280;19550;42.872;25.494;2023-03-22T04:55:19;96050.75;;;9.57;100.00
33185;BME280;19550;42.872;25.494;2023-03-22T04:57:46;96058.53;;;9.55;100.00
33185;BME280;19550;42.872;25.494;2023-03-22T05:00:13;96061.81;;;9.57;100.00
33185;BME280;19550;42.872;25.494;2023-03-22T05:02:41;96070.41;;;9.47;100.00
33185;BME280;19550;42.872;25.494;2023-03-22T05:05:08;96065.38;;;9.49;100.00
33185;BME280;19550;42.872;25.494;2023-03-22T05:07:36;96063.06;;;9.51;100.00
33185;BME280;19550;42.872;25.494;2023-03-22T05:10:05;96060.00;;;9.52;100.00
33185;BME280;19550;42.872;25.494;2023-03-22T05:12:32;96069.75;;;9.58;100.00
33185;BME280;19550;42.872;25.494;2023-03-22T05:14:59;96068.31;;;9.61;100.00
33185;BME280;19550;42.872;25.494;2023-03-22T05:17:28;96058.53;;;9.55;100.00
33185;BME280;19550;42.872;25.494;2023-03-22T05:19:55;96073.69;;;9.66;100.00
33185;BME280;19550;42.872;25.494;2023-03-22T05:22:22;96072.41;;;9.72;100.00
33185;BME280;19550;42.872;25.494;2023-03-22T05:24:50;96070.28;;;9.78;100.00
33185;BME280;19550;42.872;25.494;2023-03-22T05:27:17;96069.66;;;9.81;100.00
33185;BME280;19550;42.872;25.494;2023-03-22T05:29:55;96080.53;;;9.69;100.00
33185;BME280;19550;42.872;25.494;2023-03-22T05:32:22;96076.47;;;9.66;100.00
33185;BME280;19550;42.872;25.494;2023-03-22T05:34:50;96083.31;;;9.69;100.00
33185;BME280;19550;42.872;25.494;2023-03-22T05:37:16;96090.28;;;9.66;100.00
33185;BME280;19550;42.872;25.494;2023-03-22T05:39:45;96095.84;;;9.75;100.00
33185;BME280;19550;42.872;25.494;2023-03-22T05:42:13;96092.91;;;9.63;100.00
33185;BME280;19550;42.872;25.494;2023-03-22T05:44:40;96094.19;;;9.65;100.00
33185;BME280;19550;42.872;25.494;2023-03-22T05:47:07;96086.91;;;9.69;100.00
33185;BME280;19550;42.872;25.494;2023-03-22T05:49:34;96101.22;;;9.71;100.00
33185;BME280;19550;42.872;25.494;2023-03-22T05:52:01;96096.69;;;9.75;100.00
33185;BME280;19550;42.872;25.494;2023-03-22T05:54:30;96099.97;;;9.94;100.00
33185;BME280;19550;42.872;25.494;2023-03-22T05:56:57;96112.50;;;9.83;100.00
33185;BME280;19550;42.872;25.494;2023-03-22T05:59:26;96110.03;;;9.82;100.00
33185;BME280;19550;42.872;25.494;2023-03-22T06:01:53;96115.56;;;9.82;100.00
33185;BME280;19550;42.872;25.494;2023-03-22T06:04:19;96113.28;;;9.84;100.00
33185;BME280;19550;42.872;25.494;2023-03-22T06:06:46;96116.03;;;9.84;100.00
33185;BME280;19550;42.872;25.494;2023-03-22T06:09:13;96123.22;;;9.85;100.00
33185;BME280;19550;42.872;25.494;2023-03-22T06:11:40;96129.09;;;9.83;100.00
33185;BME280;19550;42.872;25.494;2023-03-22T06:14:07;96136.91;;;9.81;100.00
33185;BME280;19550;42.872;25.494;2023-03-22T06:16:35;96133.00;;;9.91;100.00
33185;BME280;19550;42.872;25.494;2023-03-22T06:19:02;96139.97;;;9.80;100.00
33185;BME280;19550;42.872;25.494;2023-03-22T06:21:29;96142.44;;;9.81;100.00
33185;BME280;19550;42.872;25.494;2023-03-22T06:23:55;96154.94;;;9.79;100.00
33185;BME280;19550;42.872;25.494;2023-03-22T06:26:22;96165.88;;;9.84;100.00
33185;BME280;19550;42.872;25.494;2023-03-22T06:28:49;96166.22;;;9.91;100.00
33185;BME280;19550;42.872;25.494;2023-03-22T06:31:16;96163.44;;;9.91;100.00
33185;BME280;19550;42.872;25.494;2023-03-22T06:33:44;96167.69;;;9.88;100.00
33185;BME280;19550;42.872;25.494;2023-03-22T06:36:11;96176.63;;;9.85;100.00
33185;BME280;19550;42.872;25.494;2023-03-22T06:38:38;96171.75;;;9.82;100.00
33185;BME280;19550;42.872;25.494;2023-03-22T06:41:04;96173.22;;;9.88;100.00
33185;BME280;19550;42.872;25.494;2023-03-22T06:43:31;96186.41;;;9.91;100.00
33185;BME280;19550;42.872;25.494;2023-03-22T06:45:58;96186.25;;;9.88;100.00
33185;BME280;19550;42.872;25.494;2023-03-22T06:48:25;96181.84;;;9.87;100.00
33185;BME280;19550;42.872;25.494;2023-03-22T06:50:53;96197.28;;;9.79;100.00
33185;BME280;19550;42.872;25.494;2023-03-22T06:53:20;96189.97;;;9.75;100.00
33185;BME280;19550;42.872;25.494;2023-03-22T06:55:46;96189.31;;;9.78;100.00
33185;BME280;19550;42.872;25.494;2023-03-22T06:58:13;96193.34;;;9.72;100.00
33185;BME280;19550;42.872;25.494;2023-03-22T07:00:40;96190.13;;;9.70;100.00
33185;BME280;19550;42.872;25.494;2023-03-22T07:03:07;96186.38;;;9.74;100.00
33185;BME280;19550;42.872;25.494;2023-03-22T07:05:33;96182.13;;;9.68;100.00
33185;BME280;19550;42.872;25.494;2023-03-22T07:08:02;96176.44;;;9.73;100.00
33185;BME280;19550;42.872;25.494;2023-03-22T07:10:29;96164.72;;;9.76;100.00
33185;BME280;19550;42.872;25.494;2023-03-22T07:12:56;96158.03;;;9.77;100.00
33185;BME280;19550;42.872;25.494;2023-03-22T07:15:23;96167.63;;;9.71;100.00
33185;BME280;19550;42.872;25.494;2023-03-22T07:17:50;96167.50;;;9.76;100.00
33185;BME280;19550;42.872;25.494;2023-03-22T07:20:17;96166.84;;;9.79;100.00
33185;BME280;19550;42.872;25.494;2023-03-22T07:22:44;96171.41;;;9.84;100.00
33185;BME280;19550;42.872;25.494;2023-03-22T07:25:12;96178.75;;;9.88;100.00
33185;BME280;19550;42.872;25.494;2023-03-22T07:27:39;96186.09;;;9.93;100.00
33185;BME280;19550;42.872;25.494;2023-03-22T07:30:07;96185.28;;;9.92;100.00
33185;BME280;19550;42.872;25.494;2023-03-22T07:32:34;96191.28;;;9.86;100.00
33185;BME280;19550;42.872;25.494;2023-03-22T07:35:00;96193.75;;;9.87;100.00
33185;BME280;19550;42.872;25.494;2023-03-22T07:37:27;96195.38;;;9.88;100.00
33185;BME280;19550;42.872;25.494;2023-03-22T07:39:54;96188.72;;;9.89;100.00
33185;BME280;19550;42.872;25.494;2023-03-22T07:42:22;96188.91;;;10.02;100.00
33185;BME280;19550;42.872;25.494;2023-03-22T07:44:49;96189.72;;;10.11;100.00
33185;BME280;19550;42.872;25.494;2023-03-22T07:47:16;96193.34;;;10.20;100.00
33185;BME280;19550;42.872;25.494;2023-03-22T07:49:43;96188.75;;;10.15;100.00
33185;BME280;19550;42.872;25.494;2023-03-22T07:52:10;96184.41;;;10.23;100.00
33185;BME280;19550;42.872;25.494;2023-03-22T07:54:36;96190.09;;;10.26;100.00
33185;BME280;19550;42.872;25.494;2023-03-22T07:57:03;96188.47;;;10.17;100.00
33185;BME280;19550;42.872;25.494;2023-03-22T07:59:32;96185.53;;;10.22;100.00
33185;BME280;19550;42.872;25.494;2023-03-22T08:01:59;96196.81;;;10.34;100.00
33185;BME280;19550;42.872;25.494;2023-03-22T08:04:26;96187.34;;;10.52;100.00
33185;BME280;19550;42.872;25.494;2023-03-22T08:06:55;96190.28;;;10.64;100.00
33185;BME280;19550;42.872;25.494;2023-03-22T08:09:23;96183.63;;;10.83;100.00
33185;BME280;19550;42.872;25.494;2023-03-22T08:11:49;96189.63;;;10.93;100.00
33185;BME280;19550;42.872;25.494;2023-03-22T08:14:16;96182.94;;;11.03;100.00
33185;BME280;19550;42.872;25.494;2023-03-22T08:16:45;96168.88;;;11.17;100.00
33185;BME280;19550;42.872;25.494;2023-03-22T08:19:12;96175.84;;;11.31;100.00
33185;BME280;19550;42.872;25.494;2023-03-22T08:21:39;96181.75;;;11.30;100.00
33185;BME280;19550;42.872;25.494;2023-03-22T08:24:06;96175.00;;;11.31;100.00
33185;BME280;19550;42.872;25.494;2023-03-22T08:26:32;96173.47;;;11.50;100.00
33185;BME280;19550;42.872;25.494;2023-03-22T08:29:00;96180.03;;;11.54;100.00
33185;BME280;19550;42.872;25.494;2023-03-22T08:31:27;96186.16;;;11.69;100.00
33185;BME280;19550;42.872;25.494;2023-03-22T08:33:55;96187.16;;;11.64;100.00
33185;BME280;19550;42.872;25.494;2023-03-22T08:36:22;96197.28;;;11.69;100.00
33185;BME280;19550;42.872;25.494;2023-03-22T08:38:48;96200.41;;;11.59;100.00
33185;BME280;19550;42.872;25.494;2023-03-22T08:41:15;96188.16;;;11.60;100.00
33185;BME280;19550;42.872;25.494;2023-03-22T08:43:42;96194.22;;;11.53;100.00
33185;BME280;19550;42.872;25.494;2023-03-22T08:46:09;96193.88;;;11.63;100.00
33185;BME280;19550;42.872;25.494;2023-03-22T08:48:36;96195.34;;;11.61;100.00
33185;BME280;19550;42.872;25.494;2023-03-22T08:51:07;96196.66;;;11.63;100.00
33185;BME280;19550;42.872;25.494;2023-03-22T08:53:34;96195.66;;;11.68;100.00
33185;BME280;19550;42.872;25.494;2023-03-22T08:56:01;96205.44;;;11.74;100.00
33185;BME280;19550;42.872;25.494;2023-03-22T08:58:28;96209.66;;;11.80;100.00
33185;BME280;19550;42.872;25.494;2023-03-22T09:00:55;96217.00;;;11.84;100.00
33185;BME280;19550;42.872;25.494;2023-03-22T09:03:22;96221.38;;;11.94;100.00
33185;BME280;19550;42.872;25.494;2023-03-22T09:05:49;96220.97;;;12.04;100.00
33185;BME280;19550;42.872;25.494;2023-03-22T09:08:18;96220.03;;;12.00;100.00
33185;BME280;19550;42.872;25.494;2023-03-22T09:10:45;96215.63;;;11.99;100.00
33185;BME280;19550;42.872;25.494;2023-03-22T09:13:15;96213.31;;;12.10;100.00
33185;BME280;19550;42.872;25.494;2023-03-22T09:15:42;96220.84;;;12.01;100.00
33185;BME280;19550;42.872;25.494;2023-03-22T09:18:10;96216.34;;;12.17;100.00
33185;BME280;19550;42.872;25.494;2023-03-22T09:20:37;96214.75;;;12.16;100.00
33185;BME280;19550;42.872;25.494;2023-03-22T09:23:04;96205.38;;;12.20;100.00
33185;BME280;19550;42.872;25.494;2023-03-22T09:25:32;96207.75;;;12.30;100.00
33185;BME280;19550;42.872;25.494;2023-03-22T09:27:59;96206.56;;;12.40;100.00
33185;BME280;19550;42.872;25.494;2023-03-22T09:30:26;96206.41;;;12.37;100.00
33185;BME280;19550;42.872;25.494;2023-03-22T09:32:53;96208.59;;;12.52;100.00
33185;BME280;19550;42.872;25.494;2023-03-22T09:35:20;96201.69;;;12.58;100.00
33185;BME280;19550;42.872;25.494;2023-03-22T09:37:47;96202.94;;;12.69;100.00
33185;BME280;19550;42.872;25.494;2023-03-22T09:40:17;96204.41;;;12.66;100.00
33185;BME280;19550;42.872;25.494;2023-03-22T09:42:47;96194.22;;;12.70;100.00
33185;BME280;19550;42.872;25.494;2023-03-22T09:45:18;96202.50;;;12.79;100.00
33185;BME280;19550;42.872;25.494;2023-03-22T09:47:50;96206.44;;;12.78;100.00
33185;BME280;19550;42.872;25.494;2023-03-22T09:50:19;96197.22;;;12.86;100.00
33185;BME280;19550;42.872;25.494;2023-03-22T09:52:47;96203.88;;;12.94;100.00
33185;BME280;19550;42.872;25.494;2023-03-22T09:55:18;96202.22;;;12.93;100.00
33185;BME280;19550;42.872;25.494;2023-03-22T09:57:51;96199.94;;;12.95;100.00
33185;BME280;19550;42.872;25.494;2023-03-22T10:00:25;96200.28;;;13.14;100.00
33185;BME280;19550;42.872;25.494;2023-03-22T10:03:00;96200.53;;;13.21;100.00
33185;BME280;19550;42.872;25.494;2023-03-22T10:05:34;96198.94;;;13.32;100.00
33185;BME280;19550;42.872;25.494;2023-03-22T10:08:16;96209.59;;;13.30;100.00
33185;BME280;19550;42.872;25.494;2023-03-22T10:10:47;96203.28;;;13.42;100.00
33185;BME280;19550;42.872;25.494;2023-03-22T10:13:22;96192.97;;;13.42;100.00
33185;BME280;19550;42.872;25.494;2023-03-22T10:15:52;96198.72;;;13.37;100.00
33185;BME280;19550;42.872;25.494;2023-03-22T10:18:22;96188.47;;;13.62;100.00
33185;BME280;19550;42.872;25.494;2023-03-22T10:20:55;96172.53;;;13.50;100.00
33185;BME280;19550;42.872;25.494;2023-03-22T10:23:28;96180.81;;;13.83;100.00
33185;BME280;19550;42.872;25.494;2023-03-22T10:25:57;96178.66;;;14.01;100.00
33185;BME280;19550;42.872;25.494;2023-03-22T10:28:30;96187.59;;;13.95;100.00
33185;BME280;19550;42.872;25.494;2023-03-22T10:31:00;96186.44;;;13.96;100.00
33185;BME280;19550;42.872;25.494;2023-03-22T10:33:37;96187.22;;;13.96;100.00
33185;BME280;19550;42.872;25.494;2023-03-22T10:36:06;96180.59;;;14.13;100.00
33185;BME280;19550;42.872;25.494;2023-03-22T10:38:39;96185.03;;;14.14;100.00
33185;BME280;19550;42.872;25.494;2023-03-22T10:43:48;96183.41;;;14.13;98.33
33185;BME280;19550;42.872;25.494;2023-03-22T10:46:18;96185.69;;;14.23;99.01
33185;BME280;19550;42.872;25.494;2023-03-22T10:48:49;96178.38;;;14.43;99.35
33185;BME280;19550;42.872;25.494;2023-03-22T10:51:19;96182.44;;;14.57;95.58
33185;BME280;19550;42.872;25.494;2023-03-22T10:53:49;96184.00;;;14.83;94.99
33185;BME280;19550;42.872;25.494;2023-03-22T10:56:18;96178.25;;;15.03;91.51
33185;BME280;19550;42.872;25.494;2023-03-22T10:58:48;96166.38;;;15.34;90.10
33185;BME280;19550;42.872;25.494;2023-03-22T11:01:24;96171.47;;;15.76;88.54
33185;BME280;19550;42.872;25.494;2023-03-22T11:03:55;96173.22;;;15.80;87.74
33185;BME280;19550;42.872;25.494;2023-03-22T11:06:24;96164.03;;;15.80;88.85
33185;BME280;19550;42.872;25.494;2023-03-22T11:08:53;96166.25;;;15.90;85.77
33185;BME280;19550;42.872;25.494;2023-03-22T11:11:22;96169.53;;;15.92;87.89
33185;BME280;19550;42.872;25.494;2023-03-22T11:13:58;96165.03;;;15.87;88.09
33185;BME280;19550;42.872;25.494;2023-03-22T11:16:26;96155.38;;;16.01;85.98
33185;BME280;19550;42.872;25.494;2023-03-22T11:18:54;96158.50;;;15.99;88.84
33185;BME280;19550;42.872;25.494;2023-03-22T11:21:28;96153.31;;;15.82;89.62
33185;BME280;19550;42.872;25.494;2023-03-22T11:23:58;96155.34;;;15.69;88.40
33185;BME280;19550;42.872;25.494;2023-03-22T11:26:29;96156.25;;;15.58;86.87
33185;BME280;19550;42.872;25.494;2023-03-22T11:29:05;96156.50;;;15.53;84.83
33185;BME280;19550;42.872;25.494;2023-03-22T11:31:55;96153.44;;;15.58;85.93
33185;BME280;19550;42.872;25.494;2023-03-22T11:34:25;96145.72;;;15.39;83.35
33185;BME280;19550;42.872;25.494;2023-03-22T11:36:54;96153.09;;;15.31;86.98
33185;BME280;19550;42.872;25.494;2023-03-22T11:39:24;96154.06;;;15.23;84.52
33185;BME280;19550;42.872;25.494;2023-03-22T11:41:53;96150.13;;;15.24;83.89
33185;BME280;19550;42.872;25.494;2023-03-22T11:44:25;96140.88;;;15.51;87.40
33185;BME280;19550;42.872;25.494;2023-03-22T11:46:54;96140.66;;;15.57;83.46
33185;BME280;19550;42.872;25.494;2023-03-22T11:49:38;96134.28;;;15.87;84.88
33185;BME280;19550;42.872;25.494;2023-03-22T11:52:11;96142.56;;;15.84;83.67
33185;BME280;19550;42.872;25.494;2023-03-22T11:54:41;96143.63;;;15.64;83.22
33185;BME280;19550;42.872;25.494;2023-03-22T11:57:13;96149.75;;;15.54;86.21
33185;BME280;19550;42.872;25.494;2023-03-22T11:59:47;96139.13;;;15.31;90.72
33185;BME280;19550;42.872;25.494;2023-03-22T12:02:20;96145.25;;;14.93;93.43
33185;BME280;19550;42.872;25.494;2023-03-22T12:04:51;96146.25;;;14.73;92.33
33185;BME280;19550;42.872;25.494;2023-03-22T12:07:21;96148.66;;;14.47;95.11
33185;BME280;19550;42.872;25.494;2023-03-22T12:09:51;96148.59;;;14.71;96.88
33185;BME280;19550;42.872;25.494;2023-03-22T12:12:24;96151.88;;;14.61;95.97
33185;BME280;19550;42.872;25.494;2023-03-22T12:14:56;96151.19;;;14.52;98.59
33185;BME280;19550;42.872;25.494;2023-03-22T12:17:31;96149.97;;;14.01;97.84
33185;BME280;19550;42.872;25.494;2023-03-22T12:20:06;96145.41;;;13.72;100.00
33185;BME280;19550;42.872;25.494;2023-03-22T12:22:40;96159.34;;;13.60;100.00
33185;BME280;19550;42.872;25.494;2023-03-22T12:25:12;96164.47;;;13.25;100.00
33185;BME280;19550;42.872;25.494;2023-03-22T12:27:42;96156.34;;;13.20;100.00
33185;BME280;19550;42.872;25.494;2023-03-22T12:30:15;96165.75;;;12.73;100.00
33185;BME280;19550;42.872;25.494;2023-03-22T12:32:45;96163.53;;;12.67;100.00
33185;BME280;19550;42.872;25.494;2023-03-22T12:35:16;96154.56;;;12.61;100.00
33185;BME280;19550;42.872;25.494;2023-03-22T12:37:43;96161.56;;;12.67;100.00
33185;BME280;19550;42.872;25.494;2023-03-22T12:40:17;96163.84;;;12.65;100.00
33185;BME280;19550;42.872;25.494;2023-03-22T12:42:50;96161.34;;;12.52;100.00
33185;BME280;19550;42.872;25.494;2023-03-22T12:45:24;96156.00;;;12.47;100.00
33185;BME280;19550;42.872;25.494;2023-03-22T12:47:56;96157.75;;;12.51;100.00
33185;BME280;19550;42.872;25.494;2023-03-22T12:50:32;96164.06;;;12.40;100.00
33185;BME280;19550;42.872;25.494;2023-03-22T12:53:00;96156.66;;;12.44;100.00
33185;BME280;19550;42.872;25.494;2023-03-22T12:55:31;96163.31;;;12.51;100.00
33185;BME280;19550;42.872;25.494;2023-03-22T12:58:00;96169.34;;;12.32;100.00
33185;BME280;19550;42.872;25.494;2023-03-22T13:00:33;96164.84;;;12.19;100.00